Latest Weather Observations for Wattamolla

IDN60801

Issued at 3:35 am EST Friday 25 April 2014 (issued every 30 minutes, with the page automatically refreshed every 10 minutes)

About weather observations | Map of weather stations | Latest weather observations for NSW | Other Formats
Station Details ID: 066208 Name: WATTAMOLLA AWS Lat: -34.14 Lon: 151.12 Height: 44.0 m
Data from the previous 72 hours. | See also: Recent months for locations in New South Wales
Date/Time
EST
Temp
°C
App
Temp
°C
Dew
Point
Rel
Hum
%
Delta-T
°C
Wind Press
QNH
hPa
Press
MSL
hPa
Rain
since 9 am
mm
Dir
 
Spd
km/h
Gust
km/h
Spd
kts
Gust
kts
25/03:30am - - - - - SSE 39 46 21 25 - - -
25/03:00am - - - - - S 41 50 22 27 - - -
25/02:30am - - - - - S 37 54 20 29 - - -
25/02:00am - - - - - SSE 41 52 22 28 - - -
25/01:30am - - - - - S 44 54 24 29 - - -
25/01:00am - - - - - SSE 43 57 23 31 - - -
25/12:30am - - - - - S 43 59 23 32 - - -
25/12:00am - - - - - S 41 56 22 30 - - -
 
Date/Time
EST
Temp
°C
App
Temp
°C
Dew
Point
Rel
Hum
%
Delta-T
°C
Wind Press
QNH
hPa
Press
MSL
hPa
Rain
since 9 am
mm
Dir
 
Spd
km/h
Gust
km/h
Spd
kts
Gust
kts
24/11:30pm - - - - - SSE 46 56 25 30 - - -
24/11:00pm - - - - - SSE 46 57 25 31 - - -
24/10:30pm - - - - - SSE 46 65 25 35 - - -
24/10:26pm - - - - - SSE 43 65 23 35 - - -
24/10:00pm - - - - - SSE 46 61 25 33 - - -
24/09:30pm - - - - - SSE 46 61 25 33 - - -
24/09:28pm - - - - - SSE 43 61 23 33 - - -
24/09:00pm - - - - - S 65 78 35 42 - - -
24/08:54pm - - - - - S 69 78 37 42 - - -
24/08:52pm - - - - - S 46 70 25 38 - - -
24/08:49pm - - - - - S 37 48 20 26 - - -
24/08:30pm - - - - - S 17 26 9 14 - - -
24/08:00pm - - - - - SW 15 22 8 12 - - -
24/07:30pm - - - - - SSW 13 19 7 10 - - -
24/07:00pm - - - - - SSW 7 11 4 6 - - -
24/06:30pm - - - - - W 9 11 5 6 - - -
24/06:00pm - - - - - SW 2 9 1 5 - - -
24/05:30pm - - - - - E 7 11 4 6 - - -
24/05:00pm - - - - - NNW 7 7 4 4 - - -
24/04:30pm - - - - - NNW 2 7 1 4 - - -
24/04:00pm - - - - - NE 9 11 5 6 - - -
24/03:30pm - - - - - SSE 7 9 4 5 - - -
24/03:00pm - - - - - SSE 7 11 4 6 - - -
24/02:30pm - - - - - WNW 2 11 1 6 - - -
24/02:00pm - - - - - NW 11 17 6 9 - - -
24/01:30pm - - - - - NW 13 22 7 12 - - -
24/01:00pm - - - - - ESE 7 9 4 5 - - -
24/12:30pm - - - - - SSE 4 9 2 5 - - -
24/12:00pm - - - - - WNW 20 30 11 16 - - -
24/11:30am - - - - - NW 22 32 12 17 - - -
24/11:00am - - - - - NW 20 32 11 17 - - -
24/10:30am - - - - - NW 22 37 12 20 - - -
24/10:00am - - - - - NW 26 35 14 19 - - -
24/09:30am - - - - - NW 24 33 13 18 - - -
24/09:00am - - - - - WNW 19 33 10 18 - - -
24/08:30am - - - - - W 11 17 6 9 - - -
24/08:00am - - - - - ENE 6 9 3 5 - - -
24/07:30am - - - - - NNE 7 9 4 5 - - -
24/07:00am - - - - - NNW 9 13 5 7 - - -
24/06:30am - - - - - SW 4 7 2 4 - - -
24/06:00am - - - - - W 7 9 4 5 - - -
24/05:30am - - - - - NNW 9 15 5 8 - - -
24/05:00am - - - - - NNW 11 15 6 8 - - -
24/04:30am - - - - - N 2 9 1 5 - - -
24/04:00am - - - - - NNW 7 13 4 7 - - -
24/03:30am - - - - - NW 13 19 7 10 - - -
24/03:00am - - - - - WSW 7 13 4 7 - - -
24/02:30am - - - - - WNW 9 15 5 8 - - -
24/02:00am - - - - - NNW 9 15 5 8 - - -
24/01:30am - - - - - NW 9 17 5 9 - - -
24/01:00am - - - - - NNW 13 20 7 11 - - -
24/12:30am - - - - - N 11 15 6 8 - - -
24/12:00am - - - - - N 15 17 8 9 - - -
 
Date/Time
EST
Temp
°C
App
Temp
°C
Dew
Point
Rel
Hum
%
Delta-T
°C
Wind Press
QNH
hPa
Press
MSL
hPa
Rain
since 9 am
mm
Dir
 
Spd
km/h
Gust
km/h
Spd
kts
Gust
kts
23/11:30pm - - - - - N 15 19 8 10 - - -
23/11:00pm - - - - - N 20 24 11 13 - - -
23/10:30pm - - - - - N 22 26 12 14 - - -
23/10:00pm - - - - - N 19 22 10 12 - - -
23/09:30pm - - - - - N 19 22 10 12 - - -
23/09:00pm - - - - - N 17 19 9 10 - - -
23/08:30pm - - - - - NNW 17 19 9 10 - - -
23/08:00pm - - - - - NNW 17 19 9 10 - - -
23/07:30pm - - - - - N 17 19 9 10 - - -
23/07:00pm - - - - - NNW 13 15 7 8 - - -
23/06:30pm - - - - - N 13 17 7 9 - - -
23/06:00pm - - - - - N 13 15 7 8 - - -
23/05:30pm - - - - - N 13 15 7 8 - - -
23/05:00pm - - - - - NNE 9 15 5 8 - - -
23/04:30pm - - - - - ENE 11 17 6 9 - - -
23/04:00pm - - - - - ENE 11 13 6 7 - - -
23/03:30pm - - - - - ENE 11 15 6 8 - - -
23/03:00pm - - - - - E 7 11 4 6 - - -
23/02:30pm - - - - - SE 9 11 5 6 - - -
23/02:00pm - - - - - SE 9 11 5 6 - - -
23/01:30pm - - - - - SSE 7 11 4 6 - - -
23/01:00pm - - - - - E 7 11 4 6 - - -
23/12:30pm - - - - - - - - - - - - -
23/12:00pm - - - - - ESE 7 11 4 6 - - -
23/11:30am - - - - - SE 6 9 3 5 - - -
23/11:00am - - - - - SE 9 11 5 6 - - -
23/10:30am - - - - - SE 6 9 3 5 - - -
23/10:00am - - - - - SE 9 11 5 6 - - -
23/09:30am - - - - - ESE 6 7 3 4 - - -
23/09:00am - - - - - CALM 0 0 0 0 - - -
23/08:30am - - - - - S 9 11 5 6 - - -
23/08:00am - - - - - WSW 6 7 3 4 - - -
23/07:30am - - - - - NW 7 13 4 7 - - -
23/07:00am - - - - - NW 17 19 9 10 - - -
23/06:30am - - - - - NW 17 19 9 10 - - -
23/06:00am - - - - - NW 17 19 9 10 - - -
23/05:30am - - - - - NW 20 22 11 12 - - -
23/05:00am - - - - - NW 20 24 11 13 - - -
23/04:30am - - - - - NW 17 19 9 10 - - -
23/04:00am - - - - - NW 17 19 9 10 - - -
23/03:30am - - - - - NW 17 17 9 9 - - -
23/03:00am - - - - - WNW 13 13 7 7 - - -
23/02:30am - - - - - W 15 19 8 10 - - -
23/02:00am - - - - - W 19 22 10 12 - - -
23/01:30am - - - - - WNW 20 24 11 13 - - -
23/01:00am - - - - - W 20 26 11 14 - - -
23/12:30am - - - - - WNW 20 28 11 15 - - -
23/12:00am - - - - - WNW 19 26 10 14 - - -
 
Date/Time
EST
Temp
°C
App
Temp
°C
Dew
Point
Rel
Hum
%
Delta-T
°C
Wind Press
QNH
hPa
Press
MSL
hPa
Rain
since 9 am
mm
Dir
 
Spd
km/h
Gust
km/h
Spd
kts
Gust
kts
22/11:30pm - - - - - WNW 17 20 9 11 - - -
22/11:00pm - - - - - WNW 17 22 9 12 - - -
22/10:30pm - - - - - WSW 15 20 8 11 - - -
22/10:00pm - - - - - WSW 7 13 4 7 - - -
22/09:30pm - - - - - SW 6 15 3 8 - - -
22/09:00pm - - - - - W 13 20 7 11 - - -
22/08:30pm - - - - - WNW 17 30 9 16 - - -
22/08:00pm - - - - - WNW 15 17 8 9 - - -
22/07:30pm - - - - - NW 15 17 8 9 - - -
22/07:00pm - - - - - NW 15 19 8 10 - - -
22/06:30pm - - - - - NW 19 26 10 14 - - -
22/06:00pm - - - - - NW 19 22 10 12 - - -
22/05:30pm - - - - - NW 15 17 8 9 - - -
22/05:00pm - - - - - NNW 13 17 7 9 - - -
22/04:30pm - - - - - N 7 9 4 5 - - -
22/04:00pm - - - - - N 11 15 6 8 - - -
22/03:30pm - - - - - NNW 9 13 5 7 - - -
22/03:00pm - - - - - NNW 9 15 5 8 - - -
22/02:30pm - - - - - NNW 11 13 6 7 - - -
22/02:00pm - - - - - NNW 11 17 6 9 - - -
22/01:30pm - - - - - N 9 15 5 8 - - -
22/01:00pm - - - - - N 13 17 7 9 - - -
22/12:30pm - - - - - N 13 17 7 9 - - -
22/12:00pm - - - - - N 17 26 9 14 - - -
22/11:30am - - - - - N 17 26 9 14 - - -
22/11:00am - - - - - N 20 30 11 16 - - -
22/10:30am - - - - - N 19 28 10 15 - - -
22/10:00am - - - - - NNW 17 26 9 14 - - -
22/09:30am - - - - - NNW 15 26 8 14 - - -
22/09:00am - - - - - NNW 17 24 9 13 - - -
22/08:30am - - - - - NNW 17 26 9 14 - - -
22/08:00am - - - - - NNW 22 33 12 18 - - -
22/07:30am - - - - - NNW 19 30 10 16 - - -
22/07:00am - - - - - NNW 15 22 8 12 - - -
22/06:30am - - - - - NW 20 26 11 14 - - -
22/06:00am - - - - - NW 19 24 10 13 - - -
22/05:30am - - - - - NW 20 28 11 15 - - -
22/05:00am - - - - - NW 19 22 10 12 - - -
22/04:30am - - - - - NW 19 22 10 12 - - -
22/04:00am - - - - - NW 19 22 10 12 - - -

Other Formats:

Comma delimited format used in spreadsheet applications
http://www.bom.gov.au/fwo/IDN60801/IDN60801.95752.axf

JavaScript Object Notation format (JSON) in row-major order
http://www.bom.gov.au/fwo/IDN60801/IDN60801.95752.json